createdAt,value
2019-05-06T00:00:34.195Z,6.20
2019-05-06T00:02:55.465Z,6.20
2019-05-06T00:05:16.772Z,6.20
2019-05-06T00:07:37.966Z,6.20
2019-05-06T00:10:00.481Z,6.10
2019-05-06T00:12:23.853Z,6.10
2019-05-06T00:14:44.949Z,6.10
2019-05-06T00:17:06.469Z,6.20
2019-05-06T00:19:27.694Z,6.20
2019-05-06T00:21:48.881Z,6.20
2019-05-06T00:24:10.077Z,6.20
2019-05-06T00:26:44.969Z,6.20
2019-05-06T00:29:08.183Z,6.10
2019-05-06T00:31:29.410Z,6.10
2019-05-06T00:33:50.708Z,6.10
2019-05-06T00:36:14.033Z,6.20
2019-05-06T00:38:36.227Z,6.20
2019-05-06T00:40:59.445Z,6.20
2019-05-06T00:43:20.750Z,6.20
2019-05-06T00:45:44.186Z,6.20
2019-05-06T00:48:05.183Z,6.20
2019-05-06T00:50:26.804Z,6.20
2019-05-06T00:52:49.290Z,6.20
2019-05-06T00:55:10.705Z,6.10
2019-05-06T00:57:44.096Z,6.10
2019-05-06T01:00:06.410Z,6.10
2019-05-06T01:02:29.520Z,6.10
2019-05-06T01:04:50.731Z,6.10
2019-05-06T01:07:13.905Z,6.00
2019-05-06T01:09:35.349Z,6.00
2019-05-06T01:11:58.462Z,6.00
2019-05-06T01:14:23.441Z,6.00
2019-05-06T01:16:44.716Z,6.00
2019-05-06T01:19:07.068Z,6.00
2019-05-06T01:21:28.409Z,6.00
2019-05-06T01:23:49.629Z,6.10
2019-05-06T01:26:14.827Z,6.10
2019-05-06T01:28:35.941Z,6.10
2019-05-06T01:30:57.162Z,6.10
2019-05-06T01:33:18.358Z,6.10
2019-05-06T01:35:39.570Z,6.10
2019-05-06T01:38:20.744Z,6.10
2019-05-06T01:41:00.667Z,6.10
2019-05-06T01:43:26.545Z,6.00
2019-05-06T01:45:47.757Z,6.10
2019-05-06T01:48:08.942Z,6.00
2019-05-06T01:50:30.261Z,6.10
2019-05-06T01:52:51.474Z,6.00
2019-05-06T01:55:14.175Z,6.10
2019-05-06T01:57:35.566Z,6.00
2019-05-06T01:59:56.756Z,6.00
2019-05-06T02:02:17.974Z,6.00
2019-05-06T02:04:39.169Z,6.00
2019-05-06T02:07:00.402Z,6.00
2019-05-06T02:09:21.589Z,6.00
2019-05-06T02:11:44.236Z,6.00
2019-05-06T02:14:06.097Z,5.90
2019-05-06T02:16:27.325Z,6.00
2019-05-06T02:18:48.520Z,6.00
2019-05-06T02:21:13.759Z,6.00
2019-05-06T02:23:45.886Z,6.00
2019-05-06T02:26:07.089Z,6.00
2019-05-06T02:28:34.459Z,6.00
2019-05-06T02:31:15.967Z,5.90
2019-05-06T02:33:47.983Z,5.90
2019-05-06T02:36:25.804Z,5.90
2019-05-06T02:38:51.269Z,5.90
2019-05-06T02:41:09.485Z,5.90
2019-05-06T02:43:34.079Z,5.90
2019-05-06T02:45:53.786Z,5.90
2019-05-06T02:48:16.891Z,6.00
2019-05-06T02:50:42.564Z,6.00
2019-05-06T02:53:03.378Z,6.00
2019-05-06T02:55:24.686Z,6.00
2019-05-06T02:57:46.175Z,6.00
2019-05-06T03:00:13.172Z,6.00
2019-05-06T03:02:43.059Z,6.00
2019-05-06T03:04:57.410Z,6.00
2019-05-06T03:07:18.613Z,6.00
2019-05-06T03:09:39.820Z,6.00
2019-05-06T03:12:03.532Z,6.00
2019-05-06T03:14:24.354Z,6.00
2019-05-06T03:16:45.559Z,6.00
2019-05-06T03:19:06.763Z,6.00
2019-05-06T03:21:46.030Z,6.00
2019-05-06T03:24:18.097Z,6.00
2019-05-06T03:26:39.296Z,6.00
2019-05-06T03:29:02.921Z,6.10
2019-05-06T03:31:26.182Z,6.10
2019-05-06T03:34:08.832Z,6.10
2019-05-06T03:36:18.176Z,6.10
2019-05-06T03:38:33.861Z,6.10
2019-05-06T03:40:55.206Z,6.20
2019-05-06T03:43:16.538Z,6.20
2019-05-06T03:45:45.826Z,6.20
2019-05-06T03:48:15.027Z,6.20
2019-05-06T03:50:36.238Z,6.20
2019-05-06T03:52:57.663Z,6.30
2019-05-06T03:55:19.055Z,6.20
2019-05-06T03:57:42.873Z,6.20
2019-05-06T04:00:06.698Z,6.20
2019-05-06T04:02:29.374Z,6.30
2019-05-06T04:04:55.804Z,6.30
2019-05-06T04:07:14.114Z,6.30
2019-05-06T04:09:36.791Z,6.30
2019-05-06T04:11:58.571Z,6.30
2019-05-06T04:14:20.529Z,6.30
2019-05-06T04:16:44.321Z,6.30
2019-05-06T04:19:07.624Z,6.30
2019-05-06T04:21:33.495Z,6.30
2019-05-06T04:24:08.698Z,6.30
2019-05-06T04:26:34.803Z,6.40
2019-05-06T04:28:57.330Z,6.40
2019-05-06T04:31:18.531Z,6.40
2019-05-06T04:33:40.655Z,6.40
2019-05-06T04:36:03.873Z,6.40
2019-05-06T04:38:25.291Z,6.50
2019-05-06T04:40:46.512Z,6.40
2019-05-06T04:43:07.918Z,6.40
2019-05-06T04:45:29.224Z,6.50
2019-05-06T04:47:53.431Z,6.50
2019-05-06T04:50:14.138Z,6.60
2019-05-06T04:52:36.558Z,6.50
2019-05-06T04:54:57.939Z,6.40
2019-05-06T04:57:19.136Z,6.50
2019-05-06T04:59:43.093Z,6.60
2019-05-06T05:02:03.694Z,6.60
2019-05-06T05:04:32.091Z,6.70
2019-05-06T05:06:48.101Z,6.70
2019-05-06T05:09:14.523Z,6.80
2019-05-06T05:11:35.670Z,6.80
2019-05-06T05:14:02.779Z,6.90
2019-05-06T05:16:33.200Z,7.00
2019-05-06T05:18:56.743Z,7.00
2019-05-06T05:21:18.173Z,7.00
2019-05-06T05:23:39.458Z,7.10
2019-05-06T05:26:02.958Z,7.20
2019-05-06T05:28:23.990Z,7.30
2019-05-06T05:30:45.608Z,7.30
2019-05-06T05:33:07.039Z,7.30
2019-05-06T05:35:28.339Z,7.30
2019-05-06T05:37:52.784Z,7.30
2019-05-06T05:40:13.729Z,7.30
2019-05-06T05:42:36.824Z,7.50
2019-05-06T05:44:58.081Z,7.60
2019-05-06T05:47:19.350Z,7.70
2019-05-06T05:49:59.161Z,7.70
2019-05-06T05:52:22.267Z,7.80
2019-05-06T05:54:43.651Z,7.90
2019-05-06T05:57:04.844Z,8.00
2019-05-06T05:59:26.054Z,8.00
2019-05-06T06:01:47.260Z,8.20
2019-05-06T06:04:08.614Z,8.30
2019-05-06T06:06:29.885Z,8.40
2019-05-06T06:08:52.265Z,8.50
2019-05-06T06:11:25.223Z,8.60
2019-05-06T06:13:46.610Z,8.60
2019-05-06T06:16:26.370Z,8.70
2019-05-06T06:18:49.468Z,8.80
2019-05-06T06:21:32.280Z,8.80
2019-05-06T06:24:05.211Z,8.80
2019-05-06T06:26:26.714Z,8.70
2019-05-06T06:28:48.010Z,8.80
2019-05-06T06:31:20.001Z,8.90
2019-05-06T06:33:42.871Z,8.80
2019-05-06T06:36:06.178Z,9.00
2019-05-06T06:38:47.706Z,9.10
2019-05-06T06:41:09.436Z,9.10
2019-05-06T06:43:32.417Z,8.80
2019-05-06T06:45:53.949Z,8.90
2019-05-06T06:48:15.141Z,9.00
2019-05-06T06:50:36.341Z,9.10
2019-05-06T06:52:57.554Z,9.20
2019-05-06T06:55:18.773Z,9.30
2019-05-06T06:57:44.950Z,9.20
2019-05-06T07:00:17.544Z,9.20
2019-05-06T07:02:49.736Z,9.40
2019-05-06T07:05:27.582Z,9.50
2019-05-06T07:07:44.087Z,9.40
2019-05-06T07:10:05.605Z,9.50
2019-05-06T07:12:26.856Z,10.00
2019-05-06T07:14:52.223Z,10.10
2019-05-06T07:17:13.413Z,10.20
2019-05-06T07:19:42.117Z,10.40
2019-05-06T07:22:06.857Z,10.60
2019-05-06T07:24:27.221Z,10.70
2019-05-06T07:26:52.310Z,10.60
2019-05-06T07:29:23.154Z,10.50
2019-05-06T07:31:36.549Z,10.70
2019-05-06T07:33:57.901Z,11.00
2019-05-06T07:36:20.201Z,11.30
2019-05-06T07:38:52.695Z,11.20
2019-05-06T07:41:16.302Z,11.20
2019-05-06T07:43:44.899Z,11.70
2019-05-06T07:46:12.163Z,11.70
2019-05-06T07:48:33.618Z,11.80
2019-05-06T07:50:54.819Z,12.00
2019-05-06T07:53:16.129Z,11.80
2019-05-06T07:55:42.242Z,11.60
2019-05-06T07:58:04.449Z,11.30
2019-05-06T08:00:25.742Z,11.50
2019-05-06T08:02:46.957Z,11.90
2019-05-06T08:05:08.370Z,12.30
2019-05-06T08:07:29.607Z,12.40
2019-05-06T08:09:52.832Z,12.10
2019-05-06T08:12:14.509Z,11.80
2019-05-06T08:14:43.017Z,11.60
2019-05-06T08:17:07.105Z,12.20
2019-05-06T08:19:28.834Z,12.50
2019-05-06T08:21:54.559Z,12.50
2019-05-06T08:24:15.754Z,12.40
2019-05-06T08:26:38.270Z,12.20
2019-05-06T08:28:59.454Z,12.00
2019-05-06T08:31:22.491Z,11.80
2019-05-06T08:33:44.069Z,12.30
2019-05-06T08:36:11.689Z,12.60
2019-05-06T08:38:32.716Z,12.40
2019-05-06T08:40:54.006Z,12.20
2019-05-06T08:43:15.213Z,11.80
2019-05-06T08:45:36.410Z,11.30
2019-05-06T08:47:59.326Z,11.40
2019-05-06T08:50:22.420Z,11.30
2019-05-06T08:53:05.038Z,11.80
2019-05-06T08:55:28.486Z,12.80
2019-05-06T08:57:49.702Z,13.60
2019-05-06T09:00:12.803Z,13.80
2019-05-06T09:02:34.230Z,14.50
2019-05-06T09:04:55.454Z,15.00
2019-05-06T09:07:16.675Z,15.20
2019-05-06T09:09:37.865Z,15.00
2019-05-06T09:12:02.719Z,14.30
2019-05-06T09:14:24.106Z,13.40
2019-05-06T09:16:45.298Z,12.90
2019-05-06T09:19:07.733Z,12.60
2019-05-06T09:21:29.362Z,12.70
2019-05-06T09:23:52.896Z,12.50
2019-05-06T09:26:15.653Z,12.40
2019-05-06T09:28:38.777Z,12.50
2019-05-06T09:31:05.177Z,12.70
2019-05-06T09:33:33.104Z,12.90
2019-05-06T09:35:54.474Z,12.90
2019-05-06T09:38:15.682Z,13.70
2019-05-06T09:40:36.884Z,13.60
2019-05-06T09:42:58.098Z,13.60
2019-05-06T09:45:20.291Z,13.40
2019-05-06T09:47:53.129Z,12.90
2019-05-06T09:50:18.500Z,12.40
2019-05-06T09:52:42.505Z,12.30
2019-05-06T09:55:07.843Z,12.60
2019-05-06T09:57:32.731Z,12.90
2019-05-06T09:59:54.111Z,12.60
2019-05-06T10:02:15.311Z,12.60
2019-05-06T10:04:36.551Z,12.40
2019-05-06T10:07:00.012Z,12.20
2019-05-06T10:09:24.988Z,12.40
2019-05-06T10:11:45.066Z,12.80
2019-05-06T10:14:06.381Z,12.60
2019-05-06T10:16:27.678Z,12.80
2019-05-06T10:18:48.900Z,13.10
2019-05-06T10:21:12.362Z,13.60
2019-05-06T10:23:33.418Z,13.80
2019-05-06T10:25:54.737Z,13.00
2019-05-06T10:28:36.367Z,12.60
2019-05-06T10:30:57.683Z,12.60
2019-05-06T10:33:20.908Z,13.30
2019-05-06T10:35:42.872Z,13.90
2019-05-06T10:38:08.172Z,13.70
2019-05-06T10:40:59.770Z,13.90
2019-05-06T10:43:43.100Z,14.00
2019-05-06T10:46:04.533Z,13.40
2019-05-06T10:48:29.406Z,13.00
2019-05-06T10:50:52.753Z,13.20
2019-05-06T10:53:18.341Z,13.20
2019-05-06T10:55:42.715Z,13.60
2019-05-06T10:58:04.157Z,13.40
2019-05-06T11:00:25.372Z,13.70
2019-05-06T11:02:48.477Z,14.00
2019-05-06T11:05:10.667Z,14.70
2019-05-06T11:07:35.384Z,14.30
2019-05-06T11:09:56.386Z,13.90
2019-05-06T11:12:17.586Z,14.00
2019-05-06T11:14:38.818Z,13.40
2019-05-06T11:17:00.071Z,14.30
2019-05-06T11:19:22.422Z,14.50
2019-05-06T11:21:45.099Z,14.60
2019-05-06T11:24:06.857Z,14.20
2019-05-06T11:26:28.061Z,14.80
2019-05-06T11:28:57.020Z,15.30
2019-05-06T11:31:38.354Z,15.80
2019-05-06T11:34:16.800Z,16.00
2019-05-06T11:36:39.918Z,16.80
2019-05-06T11:39:01.130Z,17.00
2019-05-06T11:41:24.249Z,16.70
2019-05-06T11:43:45.541Z,16.70
2019-05-06T11:46:07.014Z,16.20
2019-05-06T11:48:28.215Z,16.30
2019-05-06T11:50:51.325Z,15.80
2019-05-06T11:53:13.987Z,15.60
2019-05-06T11:55:38.874Z,15.70
2019-05-06T11:57:58.449Z,15.30
2019-05-06T12:00:23.772Z,15.60
2019-05-06T12:02:48.381Z,15.70
2019-05-06T12:05:09.083Z,16.20
2019-05-06T12:07:30.312Z,15.50
2019-05-06T12:09:53.817Z,15.70
2019-05-06T12:12:16.046Z,15.60
2019-05-06T12:14:37.243Z,16.10
2019-05-06T12:16:58.457Z,15.80
2019-05-06T12:19:19.654Z,15.70
2019-05-06T12:21:42.950Z,15.80
2019-05-06T12:24:04.151Z,16.30
2019-05-06T12:26:25.393Z,17.00
2019-05-06T12:28:46.649Z,16.80
2019-05-06T12:31:08.130Z,16.60
2019-05-06T12:33:32.960Z,17.20
2019-05-06T12:35:54.479Z,16.70
2019-05-06T12:38:27.488Z,16.40
2019-05-06T12:40:42.742Z,17.20
2019-05-06T12:43:12.924Z,16.80
2019-05-06T12:45:36.355Z,16.50
2019-05-06T12:48:03.052Z,16.10
2019-05-06T12:50:24.453Z,16.80
2019-05-06T12:52:45.670Z,17.00
2019-05-06T12:55:18.258Z,17.40
2019-05-06T12:57:30.322Z,17.30
2019-05-06T12:59:53.015Z,17.30
2019-05-06T13:02:14.454Z,17.40
2019-05-06T13:04:49.538Z,16.80
2019-05-06T13:06:58.883Z,15.80
2019-05-06T13:09:22.395Z,16.30
2019-05-06T13:11:43.416Z,16.30
2019-05-06T13:14:04.716Z,16.70
2019-05-06T13:16:26.055Z,17.20
2019-05-06T13:18:51.265Z,17.70
2019-05-06T13:21:12.558Z,17.50
2019-05-06T13:23:41.311Z,18.10
2019-05-06T13:26:02.836Z,17.30
2019-05-06T13:28:30.308Z,16.90
2019-05-06T13:30:50.498Z,15.50
2019-05-06T13:33:14.415Z,15.40
2019-05-06T13:35:35.878Z,15.20
2019-05-06T13:37:57.202Z,14.80
2019-05-06T13:40:18.618Z,14.50
2019-05-06T13:42:42.482Z,14.80
2019-05-06T13:45:04.741Z,16.20
2019-05-06T13:47:44.271Z,16.40
2019-05-06T13:50:06.770Z,16.80
2019-05-06T13:52:30.610Z,16.10
2019-05-06T13:55:05.012Z,16.20
2019-05-06T13:57:29.085Z,16.40
2019-05-06T13:59:49.630Z,16.10
2019-05-06T14:02:16.523Z,16.00
2019-05-06T14:04:38.100Z,15.70
2019-05-06T14:07:02.074Z,15.60
2019-05-06T14:09:31.230Z,15.80
2019-05-06T14:11:45.746Z,15.90
2019-05-06T14:14:06.950Z,15.90
2019-05-06T14:16:28.172Z,16.00
2019-05-06T14:18:49.466Z,15.90
2019-05-06T14:21:24.556Z,16.10
2019-05-06T14:23:45.896Z,16.70
2019-05-06T14:26:22.855Z,16.90
2019-05-06T14:28:53.484Z,17.20
2019-05-06T14:31:19.666Z,16.70
2019-05-06T14:33:42.816Z,16.60
2019-05-06T14:36:04.031Z,16.70
2019-05-06T14:38:25.371Z,16.80
2019-05-06T14:41:04.348Z,17.10
2019-05-06T14:43:23.659Z,17.40
2019-05-06T14:45:45.118Z,17.20
2019-05-06T14:48:06.322Z,17.20
2019-05-06T14:50:32.610Z,16.80
2019-05-06T14:52:51.753Z,16.40
2019-05-06T14:55:18.060Z,16.70
2019-05-06T14:57:39.364Z,17.00
2019-05-06T15:00:00.857Z,17.00
2019-05-06T15:02:33.915Z,16.90
2019-05-06T15:04:55.327Z,17.00
2019-05-06T15:07:16.572Z,16.70
2019-05-06T15:09:53.684Z,15.80
2019-05-06T15:12:02.391Z,15.70
2019-05-06T15:14:23.991Z,16.00
2019-05-06T15:16:45.431Z,16.00
2019-05-06T15:19:06.762Z,16.20
2019-05-06T15:21:36.519Z,16.30
2019-05-06T15:23:53.045Z,16.50
2019-05-06T15:26:15.706Z,16.70
2019-05-06T15:28:37.246Z,17.10
2019-05-06T15:31:00.460Z,16.60
2019-05-06T15:33:23.669Z,16.50
2019-05-06T15:35:58.841Z,16.40
2019-05-06T15:38:22.142Z,16.30
2019-05-06T15:40:44.222Z,15.70
2019-05-06T15:43:05.784Z,15.40
2019-05-06T15:45:26.988Z,15.40
2019-05-06T15:47:48.224Z,15.30
2019-05-06T15:50:12.511Z,15.20
2019-05-06T15:52:33.060Z,15.40
2019-05-06T15:54:54.273Z,15.20
2019-05-06T15:57:15.465Z,14.90
2019-05-06T15:59:36.661Z,14.60
2019-05-06T16:01:57.970Z,14.60
2019-05-06T16:04:19.217Z,14.20
2019-05-06T16:06:44.445Z,14.10
2019-05-06T16:09:25.717Z,14.00
2019-05-06T16:11:47.224Z,14.10
2019-05-06T16:14:08.455Z,14.20
2019-05-06T16:16:32.436Z,14.00
2019-05-06T16:18:52.758Z,14.10
2019-05-06T16:21:13.983Z,13.90
2019-05-06T16:23:42.155Z,14.00
2019-05-06T16:26:03.327Z,13.90
2019-05-06T16:28:24.734Z,13.90
2019-05-06T16:30:45.947Z,14.00
2019-05-06T16:33:07.273Z,14.00
2019-05-06T16:35:28.542Z,14.20
2019-05-06T16:37:49.745Z,14.00
2019-05-06T16:40:12.416Z,13.90
2019-05-06T16:42:33.751Z,14.00
2019-05-06T16:44:55.058Z,14.10
2019-05-06T16:47:35.063Z,13.80
2019-05-06T16:49:56.582Z,14.00
2019-05-06T16:52:17.787Z,14.10
2019-05-06T16:54:40.018Z,13.90
2019-05-06T16:57:05.893Z,13.70
2019-05-06T16:59:27.113Z,13.60
2019-05-06T17:01:48.804Z,13.50
2019-05-06T17:04:17.430Z,13.40
2019-05-06T17:06:40.550Z,13.50
2019-05-06T17:09:16.807Z,13.60
2019-05-06T17:11:31.882Z,13.70
2019-05-06T17:13:52.245Z,13.60
2019-05-06T17:16:16.146Z,13.60
2019-05-06T17:18:37.446Z,13.40
2019-05-06T17:20:58.669Z,13.50
2019-05-06T17:23:19.866Z,13.40
2019-05-06T17:25:42.285Z,13.30
2019-05-06T17:28:22.384Z,13.30
2019-05-06T17:30:53.585Z,13.20
2019-05-06T17:33:33.450Z,13.00
2019-05-06T17:35:55.116Z,13.10
2019-05-06T17:38:18.252Z,13.00
2019-05-06T17:40:39.459Z,12.90
2019-05-06T17:43:02.688Z,13.00
2019-05-06T17:45:58.013Z,12.90
2019-05-06T17:48:23.175Z,12.90
2019-05-06T17:50:46.147Z,12.90
2019-05-06T17:53:07.482Z,12.90
2019-05-06T17:55:28.814Z,12.80
2019-05-06T17:57:50.011Z,12.70
2019-05-06T18:00:13.198Z,12.60
2019-05-06T18:02:34.512Z,12.50
2019-05-06T18:04:55.725Z,12.50
2019-05-06T18:07:16.939Z,12.50
2019-05-06T18:09:38.251Z,12.40
2019-05-06T18:12:00.305Z,12.40
2019-05-06T18:14:23.124Z,12.30
2019-05-06T18:16:44.843Z,12.40
2019-05-06T18:19:06.858Z,12.30
2019-05-06T18:21:28.230Z,12.30
2019-05-06T18:23:52.137Z,12.20
2019-05-06T18:26:14.639Z,12.10
2019-05-06T18:28:36.031Z,12.10
2019-05-06T18:30:57.547Z,12.00
2019-05-06T18:33:18.890Z,12.00
2019-05-06T18:35:41.966Z,11.90
2019-05-06T18:38:03.314Z,11.90
2019-05-06T18:40:24.632Z,11.90
2019-05-06T18:42:45.858Z,11.80
2019-05-06T18:45:07.271Z,11.70
2019-05-06T18:47:28.501Z,11.60
2019-05-06T18:49:52.327Z,11.70
2019-05-06T18:52:13.962Z,11.60
2019-05-06T18:54:35.158Z,11.70
2019-05-06T18:56:56.419Z,11.60
2019-05-06T18:59:17.659Z,11.50
2019-05-06T19:01:38.898Z,11.50
2019-05-06T19:04:05.020Z,11.40
2019-05-06T19:06:26.222Z,11.40
2019-05-06T19:09:02.610Z,11.30
2019-05-06T19:11:26.177Z,11.30
2019-05-06T19:13:47.473Z,11.30
2019-05-06T19:16:08.678Z,11.30
2019-05-06T19:18:29.985Z,11.20
2019-05-06T19:20:53.051Z,11.20
2019-05-06T19:23:14.512Z,11.10
2019-05-06T19:25:36.042Z,11.10
2019-05-06T19:27:57.266Z,11.10
2019-05-06T19:30:19.035Z,11.10
2019-05-06T19:32:42.384Z,11.00
2019-05-06T19:35:03.754Z,11.00
2019-05-06T19:37:25.127Z,11.00
2019-05-06T19:39:46.465Z,10.90
2019-05-06T19:42:08.986Z,11.00
2019-05-06T19:44:30.349Z,10.90
2019-05-06T19:46:53.270Z,10.90
2019-05-06T19:49:14.954Z,10.90
2019-05-06T19:51:36.147Z,10.90
2019-05-06T19:53:57.376Z,10.90
2019-05-06T19:56:18.583Z,10.90
2019-05-06T19:58:39.804Z,10.80
2019-05-06T20:01:02.385Z,10.80
2019-05-06T20:03:23.873Z,10.80
2019-05-06T20:05:54.207Z,10.80
2019-05-06T20:08:27.064Z,10.70
2019-05-06T20:10:50.207Z,10.70
2019-05-06T20:13:13.499Z,10.70
2019-05-06T20:15:36.625Z,10.60
2019-05-06T20:17:58.376Z,10.50
2019-05-06T20:20:19.607Z,10.50
2019-05-06T20:22:42.242Z,10.50
2019-05-06T20:25:25.644Z,10.40
2019-05-06T20:27:47.198Z,10.40
2019-05-06T20:30:09.285Z,10.40
2019-05-06T20:32:32.258Z,10.30
2019-05-06T20:34:53.563Z,10.30
2019-05-06T20:37:14.767Z,10.20
2019-05-06T20:39:36.000Z,10.20
2019-05-06T20:41:57.202Z,10.10
2019-05-06T20:44:18.417Z,10.00
2019-05-06T20:46:39.741Z,10.00
2019-05-06T20:49:02.447Z,9.90
2019-05-06T20:51:23.869Z,9.90
2019-05-06T20:53:45.085Z,9.90
2019-05-06T20:56:06.381Z,9.90
2019-05-06T20:58:27.746Z,9.80
2019-05-06T21:00:49.182Z,9.70
2019-05-06T21:03:12.239Z,9.70
2019-05-06T21:05:33.826Z,9.60
2019-05-06T21:07:55.027Z,9.50
2019-05-06T21:10:17.461Z,9.40
2019-05-06T21:12:39.054Z,9.30
2019-05-06T21:15:02.351Z,9.20
2019-05-06T21:17:24.079Z,9.20
2019-05-06T21:19:45.314Z,9.10
2019-05-06T21:22:06.782Z,9.10
2019-05-06T21:24:28.047Z,9.00
2019-05-06T21:26:49.446Z,9.00
2019-05-06T21:29:12.716Z,8.90
2019-05-06T21:31:33.749Z,8.80
2019-05-06T21:33:54.981Z,8.80
2019-05-06T21:36:18.244Z,8.70
2019-05-06T21:38:39.475Z,8.70
2019-05-06T21:41:02.044Z,8.60
2019-05-06T21:43:23.451Z,8.60
2019-05-06T21:45:44.757Z,8.60
2019-05-06T21:48:05.954Z,8.50
2019-05-06T21:50:27.525Z,8.40
2019-05-06T21:52:48.734Z,8.30
2019-05-06T21:55:12.921Z,8.30
2019-05-06T21:57:33.767Z,8.20
2019-05-06T21:59:54.973Z,8.10
2019-05-06T22:02:17.870Z,8.10
2019-05-06T22:04:39.117Z,8.00
2019-05-06T22:07:02.875Z,8.00
2019-05-06T22:09:24.093Z,7.90
2019-05-06T22:11:45.318Z,7.80
2019-05-06T22:14:06.658Z,7.80
2019-05-06T22:16:28.624Z,7.60
2019-05-06T22:18:49.952Z,7.60
2019-05-06T22:21:13.121Z,7.60
2019-05-06T22:23:54.322Z,7.50
2019-05-06T22:26:16.390Z,7.50
2019-05-06T22:28:38.034Z,7.40
2019-05-06T22:30:59.390Z,7.30
2019-05-06T22:33:22.392Z,7.30
2019-05-06T22:35:43.764Z,7.20
2019-05-06T22:38:04.983Z,7.20
2019-05-06T22:40:26.254Z,7.20
2019-05-06T22:42:47.464Z,7.10
2019-05-06T22:45:08.987Z,7.00
2019-05-06T22:47:32.373Z,7.00
2019-05-06T22:49:54.379Z,7.00
2019-05-06T22:52:15.744Z,7.00
2019-05-06T22:54:52.637Z,6.90
2019-05-06T22:57:13.722Z,6.90
2019-05-06T22:59:34.992Z,6.80
2019-05-06T23:02:02.366Z,6.80
2019-05-06T23:04:28.411Z,6.70
2019-05-06T23:06:50.867Z,6.70
2019-05-06T23:09:12.115Z,6.70
2019-05-06T23:11:33.363Z,6.60
2019-05-06T23:13:54.592Z,6.60
2019-05-06T23:16:15.828Z,6.50
2019-05-06T23:18:37.053Z,6.50
2019-05-06T23:20:58.321Z,6.40
2019-05-06T23:23:22.110Z,6.20
2019-05-06T23:25:44.651Z,6.20
2019-05-06T23:28:05.914Z,6.20
2019-05-06T23:30:27.212Z,6.20
2019-05-06T23:32:48.410Z,6.20
2019-05-06T23:35:09.743Z,6.20
2019-05-06T23:37:31.086Z,6.10
2019-05-06T23:40:33.114Z,6.00
2019-05-06T23:43:33.140Z,6.00
2019-05-06T23:46:32.460Z,5.90
2019-05-06T23:49:32.803Z,5.90
2019-05-06T23:52:32.039Z,5.70
2019-05-06T23:55:32.077Z,5.70
2019-05-06T23:57:53.103Z,5.70
